sensor_id;sensor_type;location;lat;lon;timestamp;pressure;altitude;pressure_sealevel;temperature;humidity
44457;BME280;30159;49.316;8.558;2023-04-08T00:01:25;100782.28;;;9.36;100.00
44457;BME280;30159;49.316;8.558;2023-04-08T00:03:51;100777.47;;;9.38;100.00
44457;BME280;30159;49.316;8.558;2023-04-08T00:06:18;100775.91;;;9.47;100.00
44457;BME280;30159;49.316;8.558;2023-04-08T00:08:44;100779.66;;;9.46;100.00
44457;BME280;30159;49.316;8.558;2023-04-08T00:11:11;100778.53;;;9.37;100.00
44457;BME280;30159;49.316;8.558;2023-04-08T00:13:39;100781.19;;;9.32;100.00
44457;BME280;30159;49.316;8.558;2023-04-08T00:16:05;100786.31;;;9.34;100.00
44457;BME280;30159;49.316;8.558;2023-04-08T00:18:32;100780.66;;;9.30;100.00
44457;BME280;30159;49.316;8.558;2023-04-08T00:20:58;100781.19;;;9.32;100.00
44457;BME280;30159;49.316;8.558;2023-04-08T00:23:25;100779.84;;;9.29;100.00
44457;BME280;30159;49.316;8.558;2023-04-08T00:25:51;100787.66;;;9.31;100.00
44457;BME280;30159;49.316;8.558;2023-04-08T00:28:18;100777.41;;;9.28;100.00
44457;BME280;30159;49.316;8.558;2023-04-08T00:30:46;100780.13;;;9.28;100.00
44457;BME280;30159;49.316;8.558;2023-04-08T00:33:13;100782.75;;;9.23;100.00
44457;BME280;30159;49.316;8.558;2023-04-08T00:35:39;100787.88;;;9.19;100.00
44457;BME280;30159;49.316;8.558;2023-04-08T00:38:06;100783.81;;;9.17;100.00
44457;BME280;30159;49.316;8.558;2023-04-08T00:40:33;100785.16;;;9.19;100.00
44457;BME280;30159;49.316;8.558;2023-04-08T00:43:00;100770.34;;;9.12;100.00
44457;BME280;30159;49.316;8.558;2023-04-08T00:45:26;100789.22;;;9.22;100.00
44457;BME280;30159;49.316;8.558;2023-04-08T00:47:55;100787.09;;;9.29;100.00
44457;BME280;30159;49.316;8.558;2023-04-08T00:50:22;100783.66;;;9.39;100.00
44457;BME280;30159;49.316;8.558;2023-04-08T00:52:48;100785.78;;;9.37;100.00
44457;BME280;30159;49.316;8.558;2023-04-08T00:55:15;100790.34;;;9.31;100.00
44457;BME280;30159;49.316;8.558;2023-04-08T00:57:41;100788.19;;;9.28;100.00
44457;BME280;30159;49.316;8.558;2023-04-08T01:00:09;100794.91;;;9.25;100.00
44457;BME280;30159;49.316;8.558;2023-04-08T01:02:45;100793.03;;;9.31;100.00
44457;BME280;30159;49.316;8.558;2023-04-08T01:05:22;100794.13;;;9.30;100.00
44457;BME280;30159;49.316;8.558;2023-04-08T01:07:51;100792.47;;;9.24;100.00
44457;BME280;30159;49.316;8.558;2023-04-08T01:10:20;100782.72;;;9.18;100.00
44457;BME280;30159;49.316;8.558;2023-04-08T01:12:50;100794.38;;;9.28;100.00
44457;BME280;30159;49.316;8.558;2023-04-08T01:15:19;100798.94;;;9.28;100.00
44457;BME280;30159;49.316;8.558;2023-04-08T01:17:47;100791.94;;;9.27;100.00
44457;BME280;30159;49.316;8.558;2023-04-08T01:20:17;100790.38;;;9.36;100.00
44457;BME280;30159;49.316;8.558;2023-04-08T01:22:53;100790.69;;;9.45;100.00
44457;BME280;30159;49.316;8.558;2023-04-08T01:25:26;100795.53;;;9.43;100.00
44457;BME280;30159;49.316;8.558;2023-04-08T01:27:57;100794.72;;;9.42;100.00
44457;BME280;30159;49.316;8.558;2023-04-08T01:30:25;100796.88;;;9.40;100.00
44457;BME280;30159;49.316;8.558;2023-04-08T01:32:54;100787.44;;;9.38;100.00
44457;BME280;30159;49.316;8.558;2023-04-08T01:35:22;100796.06;;;9.40;100.00
44457;BME280;30159;49.316;8.558;2023-04-08T01:37:50;100792.00;;;9.37;100.00
44457;BME280;30159;49.316;8.558;2023-04-08T01:40:17;100705.09;;;8.89;100.00
44457;BME280;30159;49.316;8.558;2023-04-08T01:42:46;100775.31;;;9.35;100.00
44457;BME280;30159;49.316;8.558;2023-04-08T01:45:15;100780.13;;;9.33;100.00
44457;BME280;30159;49.316;8.558;2023-04-08T01:47:43;100735.06;;;9.08;100.00
44457;BME280;30159;49.316;8.558;2023-04-08T01:50:11;100777.78;;;9.47;100.00
44457;BME280;30159;49.316;8.558;2023-04-08T01:52:40;100779.94;;;9.50;100.00
44457;BME280;30159;49.316;8.558;2023-04-08T01:55:09;100778.59;;;9.53;100.00
44457;BME280;30159;49.316;8.558;2023-04-08T01:57:36;100778.34;;;9.54;100.00
44457;BME280;30159;49.316;8.558;2023-04-08T02:00:06;100775.94;;;9.58;100.00
44457;BME280;30159;49.316;8.558;2023-04-08T02:02:35;100771.59;;;9.52;100.00
44457;BME280;30159;49.316;8.558;2023-04-08T02:05:03;100780.19;;;9.48;100.00
44457;BME280;30159;49.316;8.558;2023-04-08T02:07:30;100783.94;;;9.37;100.00
44457;BME280;30159;49.316;8.558;2023-04-08T02:09:56;100784.16;;;9.31;100.00
44457;BME280;30159;49.316;8.558;2023-04-08T02:12:23;100780.59;;;9.20;100.00
44457;BME280;30159;49.316;8.558;2023-04-08T02:14:50;100782.94;;;9.11;100.00
44457;BME280;30159;49.316;8.558;2023-04-08T02:17:22;100781.63;;;9.14;100.00
44457;BME280;30159;49.316;8.558;2023-04-08T02:19:57;100781.59;;;9.08;100.00
44457;BME280;30159;49.316;8.558;2023-04-08T02:22:31;100784.28;;;9.08;100.00
44457;BME280;30159;49.316;8.558;2023-04-08T02:25:03;100781.00;;;9.01;100.00
44457;BME280;30159;49.316;8.558;2023-04-08T02:27:33;100781.56;;;9.03;100.00
44457;BME280;30159;49.316;8.558;2023-04-08T02:30:02;100785.94;;;9.10;100.00
44457;BME280;30159;49.316;8.558;2023-04-08T02:32:31;100779.44;;;9.05;100.00
44457;BME280;30159;49.316;8.558;2023-04-08T02:34:59;100779.97;;;9.02;100.00
44457;BME280;30159;49.316;8.558;2023-04-08T02:37:28;100789.06;;;8.96;100.00
44457;BME280;30159;49.316;8.558;2023-04-08T02:39:55;100790.09;;;8.90;100.00
44457;BME280;30159;49.316;8.558;2023-04-08T02:42:22;100779.28;;;8.85;100.00
44457;BME280;30159;49.316;8.558;2023-04-08T02:44:48;100726.56;;;8.41;100.00
44457;BME280;30159;49.316;8.558;2023-04-08T02:47:15;100786.53;;;8.79;100.00
44457;BME280;30159;49.316;8.558;2023-04-08T02:49:41;100776.22;;;8.71;100.00
44457;BME280;30159;49.316;8.558;2023-04-08T02:52:09;100779.72;;;8.72;100.00
44457;BME280;30159;49.316;8.558;2023-04-08T02:54:36;100726.16;;;8.33;100.00
44457;BME280;30159;49.316;8.558;2023-04-08T02:57:02;100781.34;;;8.73;100.00
44457;BME280;30159;49.316;8.558;2023-04-08T02:59:29;100787.78;;;8.72;100.00
44457;BME280;30159;49.316;8.558;2023-04-08T03:01:55;100788.88;;;8.71;100.00
44457;BME280;30159;49.316;8.558;2023-04-08T03:04:22;100783.53;;;8.76;100.00
44457;BME280;30159;49.316;8.558;2023-04-08T03:06:48;100789.78;;;8.81;100.00
44457;BME280;30159;49.316;8.558;2023-04-08T03:09:16;100786.78;;;8.78;100.00
44457;BME280;30159;49.316;8.558;2023-04-08T03:11:43;100782.75;;;8.80;100.00
44457;BME280;30159;49.316;8.558;2023-04-08T03:14:10;100751.63;;;8.52;100.00
44457;BME280;30159;49.316;8.558;2023-04-08T03:16:36;100791.09;;;8.79;100.00
44457;BME280;30159;49.316;8.558;2023-04-08T03:19:03;100788.94;;;8.81;100.00
44457;BME280;30159;49.316;8.558;2023-04-08T03:21:29;100787.63;;;8.83;100.00
44457;BME280;30159;49.316;8.558;2023-04-08T03:23:56;100785.44;;;8.80;100.00
44457;BME280;30159;49.316;8.558;2023-04-08T03:26:24;100787.09;;;8.81;100.00
44457;BME280;30159;49.316;8.558;2023-04-08T03:28:51;100788.63;;;8.72;100.00
44457;BME280;30159;49.316;8.558;2023-04-08T03:31:18;100806.94;;;8.48;100.00
44457;BME280;30159;49.316;8.558;2023-04-08T03:33:45;100781.56;;;8.39;100.00
44457;BME280;30159;49.316;8.558;2023-04-08T03:36:12;100801.28;;;8.44;100.00
44457;BME280;30159;49.316;8.558;2023-04-08T03:38:38;100800.34;;;8.34;100.00
44457;BME280;30159;49.316;8.558;2023-04-08T03:41:05;100797.09;;;8.32;100.00
44457;BME280;30159;49.316;8.558;2023-04-08T03:43:33;100801.63;;;8.26;100.00
44457;BME280;30159;49.316;8.558;2023-04-08T03:45:59;100801.31;;;8.22;100.00
44457;BME280;30159;49.316;8.558;2023-04-08T03:48:26;100798.84;;;8.16;100.00
44457;BME280;30159;49.316;8.558;2023-04-08T03:50:52;100809.28;;;8.12;100.00
44457;BME280;30159;49.316;8.558;2023-04-08T03:53:19;100814.09;;;8.10;100.00
44457;BME280;30159;49.316;8.558;2023-04-08T03:55:47;100806.03;;;8.10;100.00
44457;BME280;30159;49.316;8.558;2023-04-08T03:58:14;100808.16;;;8.08;100.00
44457;BME280;30159;49.316;8.558;2023-04-08T04:00:42;100800.97;;;8.14;100.00
44457;BME280;30159;49.316;8.558;2023-04-08T04:03:09;100813.03;;;8.11;100.00
44457;BME280;30159;49.316;8.558;2023-04-08T04:05:37;100803.91;;;8.12;100.00
44457;BME280;30159;49.316;8.558;2023-04-08T04:08:04;100805.47;;;8.08;100.00
44457;BME280;30159;49.316;8.558;2023-04-08T04:10:31;100698.38;;;7.41;100.00
44457;BME280;30159;49.316;8.558;2023-04-08T04:12:57;100820.00;;;8.12;100.00
44457;BME280;30159;49.316;8.558;2023-04-08T04:15:24;100640.75;;;6.99;100.00
44457;BME280;30159;49.316;8.558;2023-04-08T04:17:51;100790.91;;;8.04;100.00
44457;BME280;30159;49.316;8.558;2023-04-08T04:20:18;100760.88;;;7.85;100.00
44457;BME280;30159;49.316;8.558;2023-04-08T04:22:46;100819.00;;;8.40;100.00
44457;BME280;30159;49.316;8.558;2023-04-08T04:25:12;100820.72;;;8.52;100.00
44457;BME280;30159;49.316;8.558;2023-04-08T04:27:39;100817.22;;;8.51;100.00
44457;BME280;30159;49.316;8.558;2023-04-08T04:30:06;100814.00;;;8.54;100.00
44457;BME280;30159;49.316;8.558;2023-04-08T04:32:33;100817.41;;;8.44;100.00
44457;BME280;30159;49.316;8.558;2023-04-08T04:35:01;100827.06;;;8.40;100.00
44457;BME280;30159;49.316;8.558;2023-04-08T04:37:28;100823.47;;;8.35;100.00
44457;BME280;30159;49.316;8.558;2023-04-08T04:39:54;100824.81;;;8.32;100.00
44457;BME280;30159;49.316;8.558;2023-04-08T04:42:21;100827.72;;;8.31;100.00
44457;BME280;30159;49.316;8.558;2023-04-08T04:44:47;100789.47;;;7.96;100.00
44457;BME280;30159;49.316;8.558;2023-04-08T04:47:14;100825.25;;;8.24;100.00
44457;BME280;30159;49.316;8.558;2023-04-08T04:49:41;100823.94;;;8.27;100.00
44457;BME280;30159;49.316;8.558;2023-04-08T04:52:09;100824.81;;;8.32;100.00
44457;BME280;30159;49.316;8.558;2023-04-08T04:54:35;100825.03;;;8.31;100.00
44457;BME280;30159;49.316;8.558;2023-04-08T04:57:02;100827.22;;;8.34;100.00
44457;BME280;30159;49.316;8.558;2023-04-08T04:59:28;100829.09;;;8.33;100.00
44457;BME280;30159;49.316;8.558;2023-04-08T05:01:55;100832.09;;;8.37;100.00
44457;BME280;30159;49.316;8.558;2023-04-08T05:04:22;100827.22;;;8.34;100.00
44457;BME280;30159;49.316;8.558;2023-04-08T05:06:49;100838.94;;;8.44;100.00
44457;BME280;30159;49.316;8.558;2023-04-08T05:09:16;100830.47;;;8.36;100.00
44457;BME280;30159;49.316;8.558;2023-04-08T05:11:43;100834.06;;;8.41;100.00
44457;BME280;30159;49.316;8.558;2023-04-08T05:14:09;100851.44;;;8.39;100.00
44457;BME280;30159;49.316;8.558;2023-04-08T05:16:36;100839.91;;;8.38;100.00
44457;BME280;30159;49.316;8.558;2023-04-08T05:19:03;100847.22;;;8.43;100.00
44457;BME280;30159;49.316;8.558;2023-04-08T05:21:30;100836.28;;;8.50;100.00
44457;BME280;30159;49.316;8.558;2023-04-08T05:23:56;100842.25;;;8.57;100.00
44457;BME280;30159;49.316;8.558;2023-04-08T05:26:24;100851.72;;;8.64;100.00
44457;BME280;30159;49.316;8.558;2023-04-08T05:28:51;100843.72;;;8.70;100.00
44457;BME280;30159;49.316;8.558;2023-04-08T05:31:18;100840.59;;;8.83;100.00
44457;BME280;30159;49.316;8.558;2023-04-08T05:33:45;100842.91;;;9.01;100.00
44457;BME280;30159;49.316;8.558;2023-04-08T05:36:12;100840.41;;;8.95;100.00
44457;BME280;30159;49.316;8.558;2023-04-08T05:38:39;100845.25;;;8.93;100.00
44457;BME280;30159;49.316;8.558;2023-04-08T05:41:07;100846.06;;;8.93;100.00
44457;BME280;30159;49.316;8.558;2023-04-08T05:43:35;100851.50;;;8.98;100.00
44457;BME280;30159;49.316;8.558;2023-04-08T05:46:05;100854.25;;;9.08;100.00
44457;BME280;30159;49.316;8.558;2023-04-08T05:48:31;100854.34;;;9.19;100.00
44457;BME280;30159;49.316;8.558;2023-04-08T05:50:58;100860.38;;;9.36;100.00
44457;BME280;30159;49.316;8.558;2023-04-08T05:53:25;100866.06;;;9.40;100.00
44457;BME280;30159;49.316;8.558;2023-04-08T05:55:51;100814.97;;;9.07;100.00
44457;BME280;30159;49.316;8.558;2023-04-08T05:58:18;100869.69;;;9.61;100.00
44457;BME280;30159;49.316;8.558;2023-04-08T06:00:46;100860.59;;;9.77;100.00
44457;BME280;30159;49.316;8.558;2023-04-08T06:03:12;100818.22;;;9.62;100.00
44457;BME280;30159;49.316;8.558;2023-04-08T06:05:39;100863.66;;;9.96;100.00
44457;BME280;30159;49.316;8.558;2023-04-08T06:08:05;100868.72;;;9.92;100.00
44457;BME280;30159;49.316;8.558;2023-04-08T06:10:32;100859.28;;;9.90;100.00
44457;BME280;30159;49.316;8.558;2023-04-08T06:12:58;100879.81;;;9.96;100.00
44457;BME280;30159;49.316;8.558;2023-04-08T06:15:25;100878.22;;;10.05;100.00
44457;BME280;30159;49.316;8.558;2023-04-08T06:17:53;100879.34;;;10.20;100.00
44457;BME280;30159;49.316;8.558;2023-04-08T06:20:20;100884.31;;;10.43;100.00
44457;BME280;30159;49.316;8.558;2023-04-08T06:22:47;100853.84;;;10.58;100.00
44457;BME280;30159;49.316;8.558;2023-04-08T06:25:13;100888.41;;;10.97;100.00
44457;BME280;30159;49.316;8.558;2023-04-08T06:27:39;100893.00;;;12.33;100.00
44457;BME280;30159;49.316;8.558;2023-04-08T06:30:07;100888.22;;;14.05;93.74
44457;BME280;30159;49.316;8.558;2023-04-08T06:32:34;100888.81;;;14.83;83.19
44457;BME280;30159;49.316;8.558;2023-04-08T06:35:02;100889.41;;;14.80;81.05
44457;BME280;30159;49.316;8.558;2023-04-08T06:37:28;100885.16;;;14.74;80.54
44457;BME280;30159;49.316;8.558;2023-04-08T06:39:55;100889.94;;;14.96;79.12
44457;BME280;30159;49.316;8.558;2023-04-08T06:42:21;100885.81;;;15.31;76.93
44457;BME280;30159;49.316;8.558;2023-04-08T06:44:48;100893.16;;;16.05;75.18
44457;BME280;30159;49.316;8.558;2023-04-08T06:47:15;100899.63;;;15.95;72.96
44457;BME280;30159;49.316;8.558;2023-04-08T06:49:41;100893.97;;;15.92;74.69
44457;BME280;30159;49.316;8.558;2023-04-08T06:52:09;100898.38;;;15.13;74.57
44457;BME280;30159;49.316;8.558;2023-04-08T06:54:36;100888.56;;;14.99;78.16
44457;BME280;30159;49.316;8.558;2023-04-08T06:57:03;100896.16;;;15.62;73.69
44457;BME280;30159;49.316;8.558;2023-04-08T06:59:30;100902.94;;;15.78;72.85
44457;BME280;30159;49.316;8.558;2023-04-08T07:01:56;100892.69;;;15.43;72.57
44457;BME280;30159;49.316;8.558;2023-04-08T07:04:23;100883.69;;;15.89;71.46
44457;BME280;30159;49.316;8.558;2023-04-08T07:06:49;100798.88;;;16.23;68.49
44457;BME280;30159;49.316;8.558;2023-04-08T07:09:17;100902.19;;;17.23;68.12
44457;BME280;30159;49.316;8.558;2023-04-08T07:11:44;100903.19;;;16.46;68.58
44457;BME280;30159;49.316;8.558;2023-04-08T07:14:11;100910.38;;;15.26;71.77
44457;BME280;30159;49.316;8.558;2023-04-08T07:16:37;100903.00;;;15.46;72.54
44457;BME280;30159;49.316;8.558;2023-04-08T07:19:04;100915.94;;;15.02;72.64
44457;BME280;30159;49.316;8.558;2023-04-08T07:21:31;100911.50;;;16.27;68.83
44457;BME280;30159;49.316;8.558;2023-04-08T07:23:57;100904.94;;;16.64;67.61
44457;BME280;30159;49.316;8.558;2023-04-08T07:26:25;100913.16;;;16.51;67.34
44457;BME280;30159;49.316;8.558;2023-04-08T07:28:52;100924.22;;;15.90;70.05
44457;BME280;30159;49.316;8.558;2023-04-08T07:31:19;100925.66;;;17.11;65.79
44457;BME280;30159;49.316;8.558;2023-04-08T07:33:45;100919.53;;;16.82;65.69
44457;BME280;30159;49.316;8.558;2023-04-08T07:36:13;100923.44;;;17.13;64.61
44457;BME280;30159;49.316;8.558;2023-04-08T07:38:40;100925.09;;;16.63;66.94
44457;BME280;30159;49.316;8.558;2023-04-08T07:41:06;100931.13;;;15.36;69.79
44457;BME280;30159;49.316;8.558;2023-04-08T07:43:34;100934.28;;;14.53;72.96
44457;BME280;30159;49.316;8.558;2023-04-08T07:46:01;100943.25;;;13.58;74.67
44457;BME280;30159;49.316;8.558;2023-04-08T07:48:29;100936.44;;;12.97;76.83
44457;BME280;30159;49.316;8.558;2023-04-08T07:51:02;100889.88;;;11.95;75.61
44457;BME280;30159;49.316;8.558;2023-04-08T07:53:28;100948.53;;;12.00;77.97
44457;BME280;30159;49.316;8.558;2023-04-08T07:55:56;100942.88;;;11.81;79.92
44457;BME280;30159;49.316;8.558;2023-04-08T07:58:22;100948.88;;;11.73;80.98
44457;BME280;30159;49.316;8.558;2023-04-08T08:00:50;100949.16;;;11.51;78.90
44457;BME280;30159;49.316;8.558;2023-04-08T08:03:17;100957.00;;;11.47;79.76
44457;BME280;30159;49.316;8.558;2023-04-08T08:05:43;100950.00;;;11.31;79.54
44457;BME280;30159;49.316;8.558;2023-04-08T08:08:10;100958.03;;;11.72;78.13
44457;BME280;30159;49.316;8.558;2023-04-08T08:10:36;100908.13;;;11.23;77.67
44457;BME280;30159;49.316;8.558;2023-04-08T08:13:03;100947.78;;;11.74;78.48
44457;BME280;30159;49.316;8.558;2023-04-08T08:15:30;100956.69;;;11.79;78.14
44457;BME280;30159;49.316;8.558;2023-04-08T08:17:58;100958.06;;;11.87;77.47
44457;BME280;30159;49.316;8.558;2023-04-08T08:20:25;100952.00;;;12.16;76.46
44457;BME280;30159;49.316;8.558;2023-04-08T08:22:52;100911.31;;;11.56;76.31
44457;BME280;30159;49.316;8.558;2023-04-08T08:25:19;100953.44;;;11.93;77.50
44457;BME280;30159;49.316;8.558;2023-04-08T08:27:45;100950.19;;;11.96;77.66
44457;BME280;30159;49.316;8.558;2023-04-08T08:30:12;100959.69;;;11.73;77.39
44457;BME280;30159;49.316;8.558;2023-04-08T08:32:38;100955.06;;;11.78;76.22
44457;BME280;30159;49.316;8.558;2023-04-08T08:35:07;100959.66;;;11.63;74.47
44457;BME280;30159;49.316;8.558;2023-04-08T08:37:34;100958.06;;;11.41;75.01
44457;BME280;30159;49.316;8.558;2023-04-08T08:40:00;100962.91;;;11.70;77.09
44457;BME280;30159;49.316;8.558;2023-04-08T08:42:27;100971.81;;;11.75;71.87
44457;BME280;30159;49.316;8.558;2023-04-08T08:44:54;100968.88;;;11.56;67.36
44457;BME280;30159;49.316;8.558;2023-04-08T08:47:21;100983.97;;;11.78;67.38
44457;BME280;30159;49.316;8.558;2023-04-08T08:49:47;100973.69;;;12.06;65.65
44457;BME280;30159;49.316;8.558;2023-04-08T08:52:16;100975.84;;;12.09;65.51
44457;BME280;30159;49.316;8.558;2023-04-08T08:54:43;100976.94;;;12.08;67.98
44457;BME280;30159;49.316;8.558;2023-04-08T08:57:16;100975.97;;;12.48;67.91
44457;BME280;30159;49.316;8.558;2023-04-08T08:59:44;100977.19;;;12.71;64.56
44457;BME280;30159;49.316;8.558;2023-04-08T09:02:23;100982.50;;;12.86;63.14
44457;BME280;30159;49.316;8.558;2023-04-08T09:04:56;100971.88;;;13.00;63.47
44457;BME280;30159;49.316;8.558;2023-04-08T09:07:25;100973.88;;;12.84;62.76
44457;BME280;30159;49.316;8.558;2023-04-08T09:09:53;100972.13;;;13.04;63.05
44457;BME280;30159;49.316;8.558;2023-04-08T09:12:20;100977.84;;;12.48;63.46
44457;BME280;30159;49.316;8.558;2023-04-08T09:14:47;100987.66;;;12.28;64.11
44457;BME280;30159;49.316;8.558;2023-04-08T09:17:14;100980.38;;;12.23;64.20
44457;BME280;30159;49.316;8.558;2023-04-08T09:20:03;100965.91;;;12.59;63.24
44457;BME280;30159;49.316;8.558;2023-04-08T09:22:32;100850.69;;;12.03;63.07
44457;BME280;30159;49.316;8.558;2023-04-08T09:24:58;100984.38;;;12.91;62.59
44457;BME280;30159;49.316;8.558;2023-04-08T09:27:32;100980.09;;;13.24;61.94
44457;BME280;30159;49.316;8.558;2023-04-08T09:30:12;100976.59;;;13.58;61.93
44457;BME280;30159;49.316;8.558;2023-04-08T09:32:48;100982.75;;;13.35;62.23
44457;BME280;30159;49.316;8.558;2023-04-08T09:35:16;100968.78;;;13.17;62.70
44457;BME280;30159;49.316;8.558;2023-04-08T09:37:44;100976.47;;;13.39;62.64
44457;BME280;30159;49.316;8.558;2023-04-08T09:40:10;100985.47;;;13.35;61.39
44457;BME280;30159;49.316;8.558;2023-04-08T09:42:40;100928.03;;;12.59;62.15
44457;BME280;30159;49.316;8.558;2023-04-08T09:45:08;100970.50;;;13.03;61.69
44457;BME280;30159;49.316;8.558;2023-04-08T09:47:43;100980.91;;;12.85;61.89
44457;BME280;30159;49.316;8.558;2023-04-08T09:50:15;100986.50;;;12.99;61.69
44457;BME280;30159;49.316;8.558;2023-04-08T09:52:47;100981.31;;;13.03;60.85
44457;BME280;30159;49.316;8.558;2023-04-08T09:55:21;100977.63;;;12.89;62.07
44457;BME280;30159;49.316;8.558;2023-04-08T09:57:51;100995.34;;;13.15;60.35
44457;BME280;30159;49.316;8.558;2023-04-08T10:00:18;100988.75;;;13.26;60.96
44457;BME280;30159;49.316;8.558;2023-04-08T10:02:53;100992.94;;;13.08;60.23
44457;BME280;30159;49.316;8.558;2023-04-08T10:05:21;101002.81;;;13.34;59.57
44457;BME280;30159;49.316;8.558;2023-04-08T10:07:51;100991.66;;;13.40;60.63
44457;BME280;30159;49.316;8.558;2023-04-08T10:10:18;100969.88;;;13.51;59.94
44457;BME280;30159;49.316;8.558;2023-04-08T10:12:45;100981.25;;;13.82;57.53
44457;BME280;30159;49.316;8.558;2023-04-08T10:15:22;100982.44;;;13.70;57.99
44457;BME280;30159;49.316;8.558;2023-04-08T10:17:49;100987.72;;;13.86;58.99
44457;BME280;30159;49.316;8.558;2023-04-08T10:20:41;100996.72;;;14.05;59.83
44457;BME280;30159;49.316;8.558;2023-04-08T10:23:11;100991.66;;;13.69;58.57
44457;BME280;30159;49.316;8.558;2023-04-08T10:25:39;100979.94;;;13.50;59.48
44457;BME280;30159;49.316;8.558;2023-04-08T10:28:24;100970.13;;;13.54;58.86
44457;BME280;30159;49.316;8.558;2023-04-08T10:30:53;100992.31;;;13.61;58.18
44457;BME280;30159;49.316;8.558;2023-04-08T10:33:21;100994.16;;;13.66;59.01
44457;BME280;30159;49.316;8.558;2023-04-08T10:35:54;100999.06;;;13.24;61.23
44457;BME280;30159;49.316;8.558;2023-04-08T10:38:25;100992.00;;;13.34;60.80
44457;BME280;30159;49.316;8.558;2023-04-08T10:40:53;100912.13;;;12.86;60.99
44457;BME280;30159;49.316;8.558;2023-04-08T10:43:20;100988.16;;;13.35;60.87
44457;BME280;30159;49.316;8.558;2023-04-08T10:45:46;100992.00;;;13.23;62.38
44457;BME280;30159;49.316;8.558;2023-04-08T10:48:17;100992.16;;;13.47;61.51
44457;BME280;30159;49.316;8.558;2023-04-08T10:50:50;100994.28;;;13.51;60.15
44457;BME280;30159;49.316;8.558;2023-04-08T10:53:17;100991.44;;;12.92;61.08
44457;BME280;30159;49.316;8.558;2023-04-08T10:55:45;100955.53;;;12.71;61.37
44457;BME280;30159;49.316;8.558;2023-04-08T10:58:12;100989.56;;;12.88;61.02
44457;BME280;30159;49.316;8.558;2023-04-08T11:00:39;100990.06;;;12.95;61.14
44457;BME280;30159;49.316;8.558;2023-04-08T11:03:10;101000.38;;;12.88;62.21
44457;BME280;30159;49.316;8.558;2023-04-08T11:05:37;100990.09;;;12.90;63.26
44457;BME280;30159;49.316;8.558;2023-04-08T11:08:04;100988.06;;;13.11;62.68
44457;BME280;30159;49.316;8.558;2023-04-08T11:10:35;100989.63;;;13.17;62.36
44457;BME280;30159;49.316;8.558;2023-04-08T11:13:07;100991.47;;;13.21;63.86
44457;BME280;30159;49.316;8.558;2023-04-08T11:15:35;100990.63;;;13.26;64.63
44457;BME280;30159;49.316;8.558;2023-04-08T11:18:03;100993.69;;;13.14;64.18
44457;BME280;30159;49.316;8.558;2023-04-08T11:20:31;100991.66;;;12.96;64.25
44457;BME280;30159;49.316;8.558;2023-04-08T11:22:58;100990.06;;;12.95;65.16
44457;BME280;30159;49.316;8.558;2023-04-08T11:25:25;100982.84;;;12.80;65.17
44457;BME280;30159;49.316;8.558;2023-04-08T11:27:52;100986.38;;;12.75;64.87
44457;BME280;30159;49.316;8.558;2023-04-08T11:30:21;100952.72;;;12.86;65.91
44457;BME280;30159;49.316;8.558;2023-04-08T11:32:48;100979.41;;;13.48;63.50
44457;BME280;30159;49.316;8.558;2023-04-08T11:35:16;100985.09;;;13.46;63.76
44457;BME280;30159;49.316;8.558;2023-04-08T11:37:42;100987.13;;;13.31;64.39
44457;BME280;30159;49.316;8.558;2023-04-08T11:40:11;100978.88;;;13.46;62.77
44457;BME280;30159;49.316;8.558;2023-04-08T11:42:38;100986.13;;;13.85;62.21
44457;BME280;30159;49.316;8.558;2023-04-08T11:45:12;100982.78;;;13.64;62.25
44457;BME280;30159;49.316;8.558;2023-04-08T11:47:40;100979.44;;;13.43;62.51
44457;BME280;30159;49.316;8.558;2023-04-08T11:50:07;100984.03;;;13.03;62.81
44457;BME280;30159;49.316;8.558;2023-04-08T11:52:44;100986.91;;;13.17;63.23
44457;BME280;30159;49.316;8.558;2023-04-08T11:55:21;100988.59;;;13.47;62.92
44457;BME280;30159;49.316;8.558;2023-04-08T11:57:48;100984.59;;;13.74;63.38
44457;BME280;30159;49.316;8.558;2023-04-08T12:00:15;100982.44;;;13.70;62.06
44457;BME280;30159;49.316;8.558;2023-04-08T12:02:43;100981.59;;;13.46;62.84
44457;BME280;30159;49.316;8.558;2023-04-08T12:05:10;100993.84;;;13.38;62.07
44457;BME280;30159;49.316;8.558;2023-04-08T12:07:37;100930.38;;;13.10;62.58
44457;BME280;30159;49.316;8.558;2023-04-08T12:10:04;100983.34;;;13.61;61.74
44457;BME280;30159;49.316;8.558;2023-04-08T12:12:31;100970.16;;;13.10;60.77
44457;BME280;30159;49.316;8.558;2023-04-08T12:14:57;100987.09;;;13.36;62.66
44457;BME280;30159;49.316;8.558;2023-04-08T12:17:24;100987.75;;;13.52;60.22
44457;BME280;30159;49.316;8.558;2023-04-08T12:19:52;100979.84;;;13.84;59.11
44457;BME280;30159;49.316;8.558;2023-04-08T12:22:18;100975.28;;;14.09;59.22
44457;BME280;30159;49.316;8.558;2023-04-08T12:24:45;100996.16;;;14.08;58.53
44457;BME280;30159;49.316;8.558;2023-04-08T12:27:12;100987.78;;;13.81;58.93
44457;BME280;30159;49.316;8.558;2023-04-08T12:29:38;100923.09;;;13.69;56.76
44457;BME280;30159;49.316;8.558;2023-04-08T12:32:05;100992.34;;;14.09;58.12
44457;BME280;30159;49.316;8.558;2023-04-08T12:34:31;100979.25;;;14.17;56.95
44457;BME280;30159;49.316;8.558;2023-04-08T12:36:59;100996.59;;;13.91;57.92
44457;BME280;30159;49.316;8.558;2023-04-08T12:39:26;100975.97;;;14.20;58.81
44457;BME280;30159;49.316;8.558;2023-04-08T12:41:53;100971.63;;;14.19;57.80
44457;BME280;30159;49.316;8.558;2023-04-08T12:44:21;100977.72;;;14.05;57.98
44457;BME280;30159;49.316;8.558;2023-04-08T12:46:47;100992.81;;;13.93;58.44
44457;BME280;30159;49.316;8.558;2023-04-08T12:49:14;100981.72;;;13.89;59.92
44457;BME280;30159;49.316;8.558;2023-04-08T12:51:40;100988.09;;;14.03;59.00
44457;BME280;30159;49.316;8.558;2023-04-08T12:54:11;100979.59;;;14.58;58.37